createdAt,value
2024-01-20T13:33:14.126Z,20.6
2024-01-20T13:38:55.174Z,20.6
2024-01-20T13:44:33.336Z,20.6
2024-01-20T13:50:16.549Z,20.6
2024-01-20T13:56:10.126Z,20.6
2024-01-20T14:01:49.311Z,20.6
2024-01-20T14:07:29.411Z,20.6
2024-01-20T14:13:08.135Z,20.6
2024-01-20T14:18:47.240Z,20.6
2024-01-20T14:24:29.376Z,20.6
2024-01-20T14:30:11.813Z,20.6
2024-01-20T14:35:51.907Z,20.6
2024-01-20T14:41:14.808Z,20.6
2024-01-20T14:46:53.764Z,20.6
2024-01-20T14:52:34.352Z,20.6
2024-01-20T14:58:13.203Z,20.6
2024-01-20T15:03:55.405Z,20.7
2024-01-20T15:09:37.450Z,20.7
2024-01-20T15:15:17.572Z,20.7
2024-01-20T15:21:00.230Z,20.7
2024-01-20T15:26:38.618Z,20.6
2024-01-20T15:32:19.892Z,20.7
2024-01-20T15:38:01.822Z,20.7
2024-01-20T15:43:41.455Z,20.7
2024-01-20T15:49:20.465Z,20.7
2024-01-20T15:55:00.257Z,20.7
2024-01-20T16:00:23.428Z,20.6
2024-01-20T16:06:03.179Z,20.7
2024-01-20T16:11:44.842Z,20.7
2024-01-20T16:17:25.853Z,20.7
2024-01-20T16:23:08.407Z,20.7
2024-01-20T16:28:33.331Z,20.7
2024-01-20T16:33:41.724Z,20.7
2024-01-20T16:39:21.157Z,20.7
2024-01-20T16:45:02.448Z,20.7
2024-01-20T16:50:42.193Z,20.7
2024-01-20T16:56:26.475Z,20.7
2024-01-20T17:01:38.180Z,20.8
2024-01-20T17:06:47.071Z,20.8
2024-01-20T17:12:10.601Z,20.8
2024-01-20T17:17:34.159Z,20.8
2024-01-20T17:22:58.347Z,20.8
2024-01-20T17:28:38.698Z,20.8
2024-01-20T17:33:48.820Z,20.8
2024-01-20T17:39:28.854Z,20.8
2024-01-20T17:44:52.288Z,20.8
2024-01-20T17:50:32.702Z,20.8
2024-01-20T17:55:40.396Z,20.9
2024-01-20T18:01:07.008Z,20.9
2024-01-20T18:06:17.226Z,20.9
2024-01-20T18:11:40.546Z,20.9
2024-01-20T18:17:19.086Z,20.9
2024-01-20T18:22:59.229Z,20.9
2024-01-20T18:28:40.459Z,21
2024-01-20T18:34:19.365Z,21
2024-01-20T18:39:58.897Z,21
2024-01-20T18:45:39.699Z,21
2024-01-20T18:51:03.865Z,21.1
2024-01-20T18:56:27.226Z,21.1
2024-01-20T19:02:06.171Z,21.1
2024-01-20T19:12:55.087Z,21.2
2024-01-20T19:18:35.707Z,21.2
2024-01-20T19:24:17.796Z,21.2
2024-01-20T19:30:12.987Z,21.3
2024-01-20T19:35:38.496Z,21.3
2024-01-20T19:41:18.540Z,21.3
2024-01-20T19:46:59.617Z,21.3
2024-01-20T19:52:39.590Z,21.3
2024-01-20T19:58:20.751Z,21.3
2024-01-20T20:04:00.916Z,21.4
2024-01-20T20:09:40.390Z,21.4
2024-01-20T20:20:28.095Z,21.4
2024-01-20T20:26:07.539Z,21.5
2024-01-20T20:31:55.667Z,21.5
2024-01-20T20:37:50.848Z,21.6
2024-01-20T20:43:29.933Z,21.6
2024-01-20T20:49:09.467Z,21.6
2024-01-20T20:54:50.091Z,21.7
2024-01-20T21:00:30.693Z,21.7
2024-01-20T21:06:10.989Z,21.7
2024-01-20T21:11:19.114Z,21.8
2024-01-20T21:16:57.960Z,21.8
2024-01-20T21:22:23.382Z,21.8
2024-01-20T21:28:03.564Z,21.8
2024-01-20T21:33:44.103Z,21.8
2024-01-20T21:39:23.306Z,21.8
2024-01-20T21:45:01.957Z,21.9
2024-01-20T21:50:41.396Z,21.9
2024-01-20T21:56:20.791Z,21.9
2024-01-20T22:02:00.599Z,21.9
2024-01-20T22:07:39.925Z,21.9
2024-01-20T22:13:02.588Z,22
2024-01-20T22:18:41.616Z,22
2024-01-20T22:24:20.389Z,22
2024-01-20T22:30:10.868Z,22
2024-01-20T22:35:50.396Z,22.1
2024-01-20T22:41:14.437Z,22.1
2024-01-20T22:46:53.088Z,22.1
2024-01-20T22:52:34.318Z,22.1
2024-01-20T22:58:13.023Z,22.1
2024-01-20T23:03:53.090Z,22.1
2024-01-20T23:09:32.404Z,22.1
2024-01-20T23:15:13.759Z,22.1
2024-01-20T23:20:53.080Z,22.1
2024-01-20T23:26:32.658Z,22.1
2024-01-20T23:32:11.386Z,22.1
2024-01-20T23:37:51.230Z,22.1
2024-01-20T23:43:31.031Z,22
2024-01-20T23:49:10.125Z,22.1
2024-01-20T23:54:33.877Z,22.1
2024-01-20T23:59:57.263Z,22
